Time;durP1;ratioP1;P1;durP2;ratioP2;P2;SDS_P1;SDS_P2;PMS_P1;PMS_P2;Temp;Humidity;BMP_temperature;BMP_pressure;BME280_temperature;BME280_humidity;BME280_pressure;Samples;Min_cycle;Max_cycle;Signal;HPM_P1;HPM_P2
2024/01/02 00:00:23;;;;;;;7.90;2.77;;;5.70;99.90;;;;;;4936506;28;20214;-68
2024/01/02 00:02:50;;;;;;;13.67;2.83;;;5.70;99.90;;;;;;4978617;28;20290;-67
2024/01/02 00:05:17;;;;;;;10.30;3.37;;;5.80;99.90;;;;;;4975200;28;20202;-68
2024/01/02 00:07:44;;;;;;;8.13;3.00;;;5.80;99.90;;;;;;4973665;28;20233;-68
2024/01/02 00:10:11;;;;;;;9.30;2.90;;;5.80;99.90;;;;;;4967549;28;20203;-68
2024/01/02 00:12:38;;;;;;;10.50;3.17;;;5.70;99.90;;;;;;4976692;28;20203;-68
2024/01/02 00:15:06;;;;;;;13.47;3.10;;;5.60;99.90;;;;;;4972349;28;20207;-68
2024/01/02 00:17:34;;;;;;;15.13;3.00;;;5.60;99.90;;;;;;4947313;28;20321;-68
2024/01/02 00:20:02;;;;;;;13.17;2.63;;;5.60;99.90;;;;;;4979126;28;20219;-68
2024/01/02 00:22:29;;;;;;;9.10;2.97;;;5.50;99.90;;;;;;4978895;28;20202;-68
2024/01/02 00:24:56;;;;;;;7.13;2.57;;;5.50;99.90;;;;;;4968893;28;20209;-68
2024/01/02 00:27:23;;;;;;;14.77;2.50;;;5.60;99.90;;;;;;4980973;28;20230;-68
2024/01/02 00:29:49;;;;;;;10.03;2.43;;;5.50;99.90;;;;;;4971063;28;20314;-68
2024/01/02 00:32:16;;;;;;;10.37;2.80;;;5.50;99.90;;;;;;4942214;28;20245;-68
2024/01/02 00:34:45;;;;;;;9.17;3.27;;;5.50;99.90;;;;;;4973628;28;20322;-68
2024/01/02 00:37:11;;;;;;;17.17;3.47;;;5.60;99.90;;;;;;4974527;28;20630;-68
2024/01/02 00:39:38;;;;;;;9.07;2.53;;;5.50;99.90;;;;;;4968216;28;20913;-68
2024/01/02 00:42:05;;;;;;;7.20;2.53;;;5.50;99.90;;;;;;4973321;28;20207;-68
2024/01/02 00:44:32;;;;;;;8.30;2.73;;;6.50;99.90;;;;;;4977004;28;20205;-68
2024/01/02 00:46:59;;;;;;;8.47;2.93;;;5.50;99.90;;;;;;4938726;28;20855;-68
2024/01/02 00:49:26;;;;;;;7.63;3.10;;;5.50;99.90;;;;;;4984899;28;20286;-68
2024/01/02 00:51:54;;;;;;;11.97;2.83;;;5.50;99.90;;;;;;4976209;28;20293;-68
2024/01/02 00:54:21;;;;;;;13.67;3.23;;;5.40;99.90;;;;;;4972622;28;20211;-68
2024/01/02 00:56:48;;;;;;;9.63;2.47;;;5.40;99.90;;;;;;4977484;28;20210;-67
2024/01/02 00:59:15;;;;;;;6.70;2.60;;;5.40;99.90;;;;;;4975150;28;20210;-68
2024/01/02 01:01:42;;;;;;;5.90;2.37;;;5.40;99.90;;;;;;4922909;28;20207;-68
2024/01/02 01:04:09;;;;;;;9.23;2.27;;;5.40;99.90;;;;;;4979490;28;20208;-68
2024/01/02 01:06:36;;;;;;;8.40;2.70;;;5.60;99.90;;;;;;4976710;28;20219;-68
2024/01/02 01:09:05;;;;;;;5.33;2.33;;;5.50;99.90;;;;;;4974702;28;20281;-68
2024/01/02 01:11:31;;;;;;;4.13;2.23;;;5.60;99.90;;;;;;4965603;28;20208;-68
2024/01/02 01:13:58;;;;;;;15.67;3.03;;;5.50;99.90;;;;;;4976408;28;20206;-68
2024/01/02 01:16:25;;;;;;;4.53;2.13;;;;;;;;;;4969461;28;20302;-68
2024/01/02 01:18:52;;;;;;;5.13;2.17;;;5.50;99.90;;;;;;4946862;28;20229;-68
2024/01/02 01:21:20;;;;;;;14.83;2.67;;;5.50;99.90;;;;;;4981108;28;20199;-68
2024/01/02 01:23:46;;;;;;;6.67;1.80;;;5.50;99.90;;;;;;4974184;28;20217;-68
2024/01/02 01:26:15;;;;;;;12.37;2.67;;;5.60;99.90;;;;;;4974649;28;20207;-68
2024/01/02 01:28:42;;;;;;;8.83;2.43;;;5.60;99.90;;;;;;4978471;28;20286;-68
2024/01/02 01:31:09;;;;;;;8.00;2.13;;;5.60;99.90;;;;;;4967889;28;21020;-68
2024/01/02 01:33:36;;;;;;;9.93;2.70;;;;;;;;;;4938327;28;21636;-68
2024/01/02 01:36:03;;;;;;;10.27;2.33;;;5.60;99.90;;;;;;4980883;28;20668;-68
2024/01/02 01:38:30;;;;;;;9.67;2.60;;;5.60;99.90;;;;;;4974669;28;20673;-68
2024/01/02 01:40:57;;;;;;;7.37;2.37;;;5.60;99.90;;;;;;4972266;28;20696;-68
2024/01/02 01:43:25;;;;;;;11.97;3.27;;;5.50;99.90;;;;;;4976874;28;20578;-68
2024/01/02 01:45:53;;;;;;;8.03;2.27;;;5.60;99.90;;;;;;4977706;28;20323;-68
2024/01/02 01:48:21;;;;;;;9.20;2.27;;;5.50;99.90;;;;;;4958652;28;20230;-68
2024/01/02 01:50:49;;;;;;;10.93;2.77;;;5.60;99.90;;;;;;4967379;28;20680;-68
2024/01/02 01:53:17;;;;;;;8.03;2.43;;;5.50;99.90;;;;;;4983399;28;20299;-68
2024/01/02 01:55:44;;;;;;;8.47;2.43;;;5.60;99.90;;;;;;4980512;28;20205;-68
2024/01/02 01:58:12;;;;;;;6.27;2.70;;;5.60;99.90;;;;;;4969622;28;20199;-68
2024/01/02 02:00:40;;;;;;;9.53;2.30;;;5.50;99.90;;;;;;4974955;28;20354;-68
2024/01/02 02:03:07;;;;;;;8.00;2.00;;;5.50;99.90;;;;;;4973331;28;20210;-68
2024/01/02 02:05:35;;;;;;;10.10;2.50;;;5.50;99.90;;;;;;4948147;28;20210;-68
2024/01/02 02:08:03;;;;;;;7.83;2.10;;;5.60;99.90;;;;;;4976407;28;20226;-68
2024/01/02 02:10:30;;;;;;;8.60;2.40;;;5.80;99.90;;;;;;4971000;28;20199;-68
2024/01/02 02:12:58;;;;;;;5.30;1.97;;;5.60;99.90;;;;;;4975485;28;20215;-68
2024/01/02 02:15:25;;;;;;;6.43;2.40;;;;;;;;;;4983250;28;20214;-68
2024/01/02 02:17:53;;;;;;;7.63;2.10;;;5.60;99.90;;;;;;4977091;28;20216;-68
2024/01/02 02:20:20;;;;;;;7.77;2.20;;;5.70;99.90;;;;;;4946597;28;20207;-68
2024/01/02 02:22:49;;;;;;;9.80;1.90;;;5.70;99.90;;;;;;4983696;28;20222;-68
2024/01/02 02:25:16;;;;;;;10.10;2.37;;;5.70;99.90;;;;;;4977903;28;20250;-68
2024/01/02 02:27:44;;;;;;;5.17;2.07;;;;;;;;;;4970630;28;20234;-68
2024/01/02 02:30:11;;;;;;;6.90;2.53;;;5.70;99.90;;;;;;4979899;28;20357;-68
2024/01/02 02:32:38;;;;;;;7.67;2.53;;;5.80;99.90;;;;;;4969594;28;20331;-68
2024/01/02 02:35:06;;;;;;;10.53;2.03;;;5.80;99.90;;;;;;4981552;28;20232;-68
2024/01/02 02:37:33;;;;;;;5.97;2.10;;;5.80;99.90;;;;;;4942537;28;20217;-68
2024/01/02 02:40:02;;;;;;;15.50;2.80;;;5.80;99.90;;;;;;4975094;28;20214;-68
2024/01/02 02:42:28;;;;;;;16.20;2.70;;;5.90;99.90;;;;;;4968752;28;20204;-68
2024/01/02 02:44:55;;;;;;;7.30;2.03;;;5.90;99.90;;;;;;4983132;28;20222;-68
2024/01/02 02:47:23;;;;;;;5.83;1.97;;;5.80;99.90;;;;;;4979552;28;20225;-68
2024/01/02 02:49:51;;;;;;;9.63;2.37;;;7.50;99.90;;;;;;4978921;28;20319;-68
2024/01/02 02:52:19;;;;;;;15.60;2.20;;;6.20;99.90;;;;;;4947942;28;20276;-68
2024/01/02 02:54:46;;;;;;;3.93;1.80;;;5.90;99.90;;;;;;4976015;28;20210;-68
2024/01/02 02:57:14;;;;;;;4.67;1.93;;;6.00;99.90;;;;;;4980440;28;20203;-68
2024/01/02 02:59:41;;;;;;;8.27;1.93;;;5.40;99.90;;;;;;4967843;28;20217;-68
2024/01/02 03:02:08;;;;;;;9.23;2.20;;;6.70;99.90;;;;;;4974796;28;20217;-67
2024/01/02 03:04:35;;;;;;;7.40;2.67;;;;;;;;;;4979610;28;20225;-68
2024/01/02 03:07:02;;;;;;;10.43;2.37;;;6.00;99.90;;;;;;4945815;28;20457;-68
2024/01/02 03:09:29;;;;;;;9.43;2.03;;;6.00;99.90;;;;;;4977797;28;20710;-68
2024/01/02 03:11:56;;;;;;;5.53;2.17;;;6.20;99.90;;;;;;4976191;28;20318;-68
2024/01/02 03:14:24;;;;;;;9.93;2.43;;;6.00;99.90;;;;;;4966976;28;20199;-68
2024/01/02 03:16:52;;;;;;;15.87;3.30;;;6.10;99.90;;;;;;4976811;28;21939;-68
2024/01/02 03:19:19;;;;;;;5.93;2.23;;;6.00;99.90;;;;;;4975516;28;20231;-68
2024/01/02 03:21:45;;;;;;;10.83;2.70;;;6.10;99.90;;;;;;4975606;28;20199;-68
2024/01/02 03:24:12;;;;;;;10.93;2.57;;;6.10;99.90;;;;;;4940819;28;20212;-68
2024/01/02 03:26:39;;;;;;;9.00;3.37;;;;;;;;;;4981364;28;20209;-68
2024/01/02 03:29:06;;;;;;;8.20;2.40;;;6.00;99.90;;;;;;4968901;28;21044;-68
2024/01/02 03:31:35;;;;;;;11.93;2.93;;;6.20;99.90;;;;;;4980583;28;20952;-68
2024/01/02 03:34:03;;;;;;;6.43;2.40;;;6.40;99.90;;;;;;4979012;28;20235;-68
2024/01/02 03:36:30;;;;;;;4.97;1.90;;;6.00;99.90;;;;;;4978147;28;20238;-68
2024/01/02 03:38:56;;;;;;;16.90;2.97;;;6.10;99.90;;;;;;4946491;28;20223;-68
2024/01/02 03:41:23;;;;;;;12.17;3.17;;;6.10;99.90;;;;;;4977376;28;20294;-68
2024/01/02 03:43:50;;;;;;;10.47;2.60;;;6.10;99.90;;;;;;4982387;28;20238;-68
2024/01/02 03:46:17;;;;;;;8.77;2.53;;;6.00;99.90;;;;;;4972559;28;20234;-68
2024/01/02 03:48:45;;;;;;;6.97;2.17;;;6.10;99.90;;;;;;4979215;28;20325;-68
2024/01/02 03:51:12;;;;;;;9.97;2.20;;;6.10;99.90;;;;;;4975910;28;20298;-68
2024/01/02 03:53:39;;;;;;;12.87;2.23;;;6.10;99.90;;;;;;4945825;28;20684;-68
2024/01/02 03:56:07;;;;;;;10.60;2.00;;;6.00;99.90;;;;;;4976349;28;20286;-68
2024/01/02 03:58:34;;;;;;;7.57;3.00;;;6.10;99.90;;;;;;4975383;28;20286;-68
2024/01/02 04:01:00;;;;;;;6.23;2.63;;;5.80;99.90;;;;;;4968899;28;20210;-68
2024/01/02 04:03:27;;;;;;;7.20;2.57;;;6.10;99.90;;;;;;4984038;28;20206;-68
2024/01/02 04:05:55;;;;;;;11.63;3.00;;;6.10;99.90;;;;;;4980895;28;20200;-68
2024/01/02 04:08:22;;;;;;;11.43;3.17;;;6.20;99.90;;;;;;4945733;28;20231;-68
2024/01/02 04:10:49;;;;;;;16.90;3.80;;;6.10;99.90;;;;;;4976697;28;20213;-68
2024/01/02 04:13:16;;;;;;;10.90;2.77;;;6.10;99.90;;;;;;4972162;28;20210;-68
2024/01/02 04:15:43;;;;;;;9.40;3.27;;;6.10;99.90;;;;;;4980487;28;20203;-68
2024/01/02 04:18:10;;;;;;;9.00;2.70;;;5.80;99.90;;;;;;4974600;28;20214;-68
2024/01/02 04:20:37;;;;;;;12.10;2.87;;;6.10;99.90;;;;;;4982494;28;20209;-68
2024/01/02 04:23:05;;;;;;;11.50;3.23;;;6.10;99.90;;;;;;4952777;28;20297;-68
2024/01/02 04:25:32;;;;;;;10.03;3.00;;;6.10;99.90;;;;;;4973624;28;20199;-68
2024/01/02 04:27:59;;;;;;;6.20;2.40;;;;;;;;;;4974438;28;20227;-68
2024/01/02 04:30:26;;;;;;;10.23;2.30;;;6.10;99.90;;;;;;4968623;28;20242;-68
2024/01/02 04:32:53;;;;;;;3.63;1.67;;;6.10;99.90;;;;;;4963825;28;20213;-68
2024/01/02 04:35:20;;;;;;;8.47;1.90;;;6.10;99.90;;;;;;4975638;28;20234;-68
2024/01/02 04:37:47;;;;;;;6.33;1.60;;;6.10;99.90;;;;;;4980251;28;20221;-68
2024/01/02 04:40:16;;;;;;;5.83;1.90;;;6.20;99.90;;;;;;4940378;28;20685;-68
2024/01/02 04:42:43;;;;;;;8.30;2.23;;;6.20;99.90;;;;;;4977038;28;20740;-68
2024/01/02 04:45:10;;;;;;;9.43;1.93;;;6.30;99.90;;;;;;4970188;28;20651;-68
2024/01/02 04:47:37;;;;;;;9.13;2.30;;;;;;;;;;4982120;28;20226;-68
2024/01/02 04:50:05;;;;;;;8.70;1.73;;;6.30;99.90;;;;;;4970947;28;20214;-68
2024/01/02 04:52:32;;;;;;;5.87;2.00;;;6.20;99.90;;;;;;4980280;28;20535;-68
2024/01/02 04:55:00;;;;;;;9.07;1.80;;;6.30;99.90;;;;;;4943389;28;20688;-68
2024/01/02 04:57:28;;;;;;;11.43;1.87;;;6.20;99.90;;;;;;4980603;28;20198;-68
2024/01/02 04:59:55;;;;;;;8.40;2.00;;;5.90;99.90;;;;;;4980218;28;20230;-68
2024/01/02 05:02:24;;;;;;;10.67;2.07;;;6.20;99.90;;;;;;4966886;28;20325;-68
2024/01/02 05:04:51;;;;;;;5.20;2.17;;;6.20;99.90;;;;;;4956086;28;20210;-68
2024/01/02 05:07:18;;;;;;;5.23;1.93;;;6.20;99.90;;;;;;4973141;28;20211;-68
2024/01/02 05:09:45;;;;;;;10.53;1.93;;;6.30;99.90;;;;;;4977837;28;20226;-68
2024/01/02 05:12:12;;;;;;;12.53;2.20;;;6.20;99.90;;;;;;4943047;28;20215;-68
2024/01/02 05:14:40;;;;;;;4.57;1.47;;;6.30;99.90;;;;;;4979207;28;20702;-68
2024/01/02 05:17:10;;;;;;;6.20;1.73;;;6.20;99.90;;;;;;4970018;28;20216;-68
2024/01/02 05:19:38;;;;;;;5.97;1.30;;;;;;;;;;4956312;28;20195;-68
2024/01/02 05:22:05;;;;;;;10.67;2.27;;;6.20;99.90;;;;;;4969214;28;20308;-68
2024/01/02 05:24:32;;;;;;;4.60;1.63;;;;;;;;;;4968632;28;20258;-68
2024/01/02 05:26:59;;;;;;;6.83;1.60;;;6.20;99.90;;;;;;4943452;28;20218;-68
2024/01/02 05:29:26;;;;;;;5.93;1.83;;;6.20;99.90;;;;;;4971261;28;20234;-68
2024/01/02 05:31:54;;;;;;;6.00;1.70;;;6.30;99.90;;;;;;4963540;28;20229;-68
2024/01/02 05:34:21;;;;;;;4.57;1.93;;;6.20;99.90;;;;;;4971151;28;20246;-68
2024/01/02 05:36:48;;;;;;;7.07;1.70;;;6.20;99.90;;;;;;4951216;28;20681;-68
2024/01/02 05:39:15;;;;;;;6.30;1.50;;;6.20;99.90;;;;;;4973832;28;20708;-68
2024/01/02 05:41:42;;;;;;;6.80;1.50;;;6.20;99.90;;;;;;4933226;28;22062;-68
2024/01/02 05:44:09;;;;;;;4.23;1.63;;;6.30;99.90;;;;;;4961337;28;20233;-68
2024/01/02 05:46:36;;;;;;;5.60;1.97;;;6.80;99.90;;;;;;4973127;28;20234;-68
2024/01/02 05:49:04;;;;;;;9.10;1.70;;;6.20;99.90;;;;;;4968609;28;20230;-68
2024/01/02 05:51:31;;;;;;;8.33;1.73;;;6.30;99.90;;;;;;4972708;28;20244;-68
2024/01/02 05:53:59;;;;;;;3.83;1.47;;;6.30;99.90;;;;;;4984994;28;20224;-69
2024/01/02 05:56:26;;;;;;;5.53;1.20;;;;;;;;;;4973847;28;20229;-68
2024/01/02 05:58:53;;;;;;;5.37;1.87;;;6.30;99.90;;;;;;4937829;28;20264;-69
2024/01/02 06:01:20;;;;;;;5.57;1.63;;;6.20;99.90;;;;;;4981243;28;20231;-69
2024/01/02 06:03:47;;;;;;;3.17;1.70;;;5.80;99.90;;;;;;4966999;28;20222;-68
2024/01/02 06:06:15;;;;;;;4.43;1.50;;;6.30;99.90;;;;;;4982451;28;20222;-68
2024/01/02 06:08:42;;;;;;;4.03;1.50;;;6.30;99.90;;;;;;4965060;28;20236;-68
2024/01/02 06:11:10;;;;;;;5.13;1.53;;;6.80;99.90;;;;;;4980052;28;20222;-68
2024/01/02 06:13:37;;;;;;;5.90;1.70;;;6.30;99.90;;;;;;4923596;28;20222;-68
2024/01/02 06:16:04;;;;;;;6.17;1.57;;;;;;;;;;4969054;28;20952;-68
2024/01/02 06:18:31;;;;;;;5.03;1.47;;;6.60;99.90;;;;;;4962793;28;20219;-68
2024/01/02 06:20:58;;;;;;;2.80;1.40;;;6.70;99.90;;;;;;4965777;28;20227;-68
2024/01/02 06:23:27;;;;;;;7.20;1.30;;;6.60;99.90;;;;;;4973518;28;20207;-68
2024/01/02 06:25:54;;;;;;;6.83;1.47;;;6.50;99.90;;;;;;4980602;28;20977;-68
2024/01/02 06:28:21;;;;;;;13.70;5.10;;;6.40;99.90;;;;;;4975939;28;20238;-68
2024/01/02 06:30:48;;;;;;;6.30;2.10;;;6.30;99.90;;;;;;4943231;28;20405;-69
2024/01/02 06:33:14;;;;;;;7.57;2.03;;;6.30;99.90;;;;;;4970392;28;20211;-68
2024/01/02 06:35:41;;;;;;;8.87;2.57;;;6.30;99.90;;;;;;4971029;28;20359;-68
2024/01/02 06:38:08;;;;;;;5.70;1.97;;;6.30;99.90;;;;;;4980819;28;20209;-68
2024/01/02 06:40:37;;;;;;;5.97;1.50;;;6.40;99.90;;;;;;4973455;28;20298;-68
2024/01/02 06:43:05;;;;;;;4.20;1.33;;;6.40;99.90;;;;;;4982690;28;20219;-68
2024/01/02 06:45:32;;;;;;;3.77;1.30;;;6.50;99.90;;;;;;4947384;28;20210;-68
2024/01/02 06:47:59;;;;;;;10.57;1.63;;;5.60;99.90;;;;;;4978227;28;20299;-68
2024/01/02 06:50:26;;;;;;;5.80;1.10;;;;;;;;;;4975120;28;20227;-69
2024/01/02 06:52:53;;;;;;;4.93;1.50;;;6.20;99.90;;;;;;4978299;28;20287;-68
2024/01/02 06:55:20;;;;;;;4.37;1.60;;;6.30;99.90;;;;;;4972485;28;20202;-68
2024/01/02 06:57:49;;;;;;;7.67;2.57;;;6.30;99.90;;;;;;4981090;28;20198;-68
2024/01/02 07:00:17;;;;;;;11.90;3.17;;;6.20;99.90;;;;;;4948561;28;20211;-68
2024/01/02 07:02:44;;;;;;;9.77;2.57;;;6.30;99.90;;;;;;4977250;28;20203;-68
2024/01/02 07:05:14;;;;;;;14.80;3.20;;;6.30;99.90;;;;;;4972598;28;20203;-68
2024/01/02 07:07:41;;;;;;;3.90;2.03;;;6.30;99.90;;;;;;4974482;28;20207;-68
2024/01/02 07:10:09;;;;;;;1.47;1.20;;;6.30;99.90;;;;;;4975251;28;20229;-68
2024/01/02 07:12:36;;;;;;;4.33;1.37;;;6.30;99.90;;;;;;4985174;28;20195;-68
2024/01/02 07:15:05;;;;;;;6.37;1.77;;;6.20;99.90;;;;;;4979960;28;20207;-68
2024/01/02 07:17:32;;;;;;;7.27;1.63;;;6.30;99.90;;;;;;4948467;28;20795;-67
2024/01/02 07:19:59;;;;;;;1.83;0.97;;;6.50;99.90;;;;;;4966813;28;20374;-68
2024/01/02 07:22:27;;;;;;;7.43;1.30;;;6.30;99.90;;;;;;4967323;28;20848;-68
2024/01/02 07:24:54;;;;;;;4.33;1.60;;;;;;;;;;4977353;28;20209;-68
2024/01/02 07:27:21;;;;;;;9.47;2.63;;;6.30;99.90;;;;;;4965583;28;20398;-67
2024/01/02 07:29:48;;;;;;;11.60;3.60;;;6.20;99.90;;;;;;4980125;28;20236;-68
2024/01/02 07:32:16;;;;;;;4.33;2.20;;;6.30;99.90;;;;;;4947656;28;20202;-68
2024/01/02 07:34:43;;;;;;;8.07;2.57;;;6.30;99.90;;;;;;4973837;28;20232;-68
2024/01/02 07:37:11;;;;;;;6.97;2.17;;;6.30;99.90;;;;;;4973015;28;20203;-68
2024/01/02 07:39:38;;;;;;;2.97;1.30;;;6.30;99.90;;;;;;4982361;28;20195;-68
2024/01/02 07:42:08;;;;;;;1.60;1.50;;;6.30;99.90;;;;;;4969232;28;20948;-68
2024/01/02 07:44:35;;;;;;;3.93;1.60;;;6.30;99.90;;;;;;4976680;28;20199;-68
2024/01/02 07:47:02;;;;;;;3.27;1.40;;;6.30;99.90;;;;;;4946355;28;20214;-68
2024/01/02 07:49:31;;;;;;;5.27;1.80;;;6.20;99.90;;;;;;4974916;28;20236;-68
2024/01/02 07:51:58;;;;;;;6.10;1.67;;;;;;;;;;4962673;28;20207;-68
2024/01/02 07:54:25;;;;;;;1.87;1.30;;;6.40;99.90;;;;;;4978081;28;20205;-68
2024/01/02 07:56:51;;;;;;;3.30;1.63;;;5.90;99.90;;;;;;4962772;28;20408;-68
2024/01/02 07:59:21;;;;;;;2.00;1.20;;;5.80;99.90;;;;;;4969996;28;20689;-68
2024/01/02 08:01:48;;;;;;;3.63;1.50;;;6.50;99.90;;;;;;4939347;28;20772;-68
2024/01/02 08:04:15;;;;;;;3.93;1.30;;;6.60;99.90;;;;;;4973771;28;20305;-68
2024/01/02 08:06:43;;;;;;;2.27;1.20;;;6.40;99.90;;;;;;4974699;28;20195;-68
2024/01/02 08:09:10;;;;;;;3.63;1.70;;;6.50;99.90;;;;;;4976146;28;20237;-68
2024/01/02 08:11:37;;;;;;;8.87;2.57;;;7.00;99.90;;;;;;4967798;28;20294;-68
2024/01/02 08:14:04;;;;;;;4.03;1.63;;;6.40;99.90;;;;;;4973850;28;20210;-68
2024/01/02 08:16:32;;;;;;;3.00;1.33;;;6.00;99.90;;;;;;4968272;28;20342;-68
2024/01/02 08:18:59;;;;;;;1.83;1.13;;;6.40;99.90;;;;;;4946644;28;21999;-68
2024/01/02 08:21:26;;;;;;;3.93;1.50;;;6.40;99.90;;;;;;4972167;28;20661;-68
2024/01/02 08:23:54;;;;;;;4.80;1.53;;;6.40;99.90;;;;;;4977269;28;20386;-67
2024/01/02 08:26:22;;;;;;;2.50;1.20;;;6.40;99.90;;;;;;4974101;28;20235;-67
2024/01/02 08:28:49;;;;;;;2.27;1.00;;;6.40;99.90;;;;;;4972963;28;20746;-67
2024/01/02 08:31:16;;;;;;;2.97;1.10;;;6.70;99.90;;;;;;4967273;28;20317;-67
2024/01/02 08:33:43;;;;;;;1.70;1.30;;;6.50;99.90;;;;;;4941105;28;20799;-68
2024/01/02 08:36:11;;;;;;;1.87;1.53;;;6.40;99.90;;;;;;4966729;28;20328;-67
2024/01/02 08:38:38;;;;;;;5.87;2.00;;;6.40;99.90;;;;;;4980061;28;20198;-67
2024/01/02 08:41:06;;;;;;;3.60;1.33;;;6.40;99.90;;;;;;4975159;28;20994;-67
2024/01/02 08:43:33;;;;;;;3.27;1.60;;;6.40;99.90;;;;;;4971421;28;20208;-67
2024/01/02 08:46:00;;;;;;;2.97;1.50;;;6.40;99.90;;;;;;4967407;28;20202;-68
2024/01/02 08:48:27;;;;;;;1.30;0.90;;;6.50;99.90;;;;;;4982852;28;20206;-68
2024/01/02 08:50:54;;;;;;;2.47;0.97;;;6.50;99.90;;;;;;4932417;28;20227;-68
2024/01/02 08:53:21;;;;;;;1.87;0.80;;;6.50;99.90;;;;;;4981740;28;20643;-67
2024/01/02 08:55:48;;;;;;;3.47;1.00;;;4.60;99.90;;;;;;4977031;28;20198;-67
2024/01/02 08:58:17;;;;;;;1.10;1.00;;;6.40;99.90;;;;;;4960694;28;20716;-67
2024/01/02 09:00:43;;;;;;;2.33;0.87;;;6.40;99.90;;;;;;4979318;28;20199;-67
2024/01/02 09:03:10;;;;;;;1.40;0.80;;;6.40;99.90;;;;;;4971919;28;20227;-68
2024/01/02 09:05:38;;;;;;;2.03;0.77;;;6.40;99.90;;;;;;4944499;28;20214;-67
2024/01/02 09:08:05;;;;;;;1.00;0.90;;;6.50;99.90;;;;;;4969563;28;24126;-67
2024/01/02 09:10:32;;;;;;;0.90;0.83;;;6.40;99.90;;;;;;4978812;28;20232;-67
2024/01/02 09:12:59;;;;;;;1.90;0.80;;;6.40;99.90;;;;;;4967496;28;20904;-67
2024/01/02 09:15:27;;;;;;;0.97;0.87;;;6.40;99.90;;;;;;4978726;28;20572;-67
2024/01/02 09:17:54;;;;;;;0.60;0.60;;;6.40;99.90;;;;;;4961457;28;20207;-67
2024/01/02 09:20:21;;;;;;;0.60;0.60;;;6.40;99.90;;;;;;4949258;28;20217;-67
2024/01/02 09:22:48;;;;;;;0.60;0.60;;;6.50;99.90;;;;;;4972369;28;20564;-67
2024/01/02 09:25:16;;;;;;;2.33;1.50;;;7.10;99.90;;;;;;4979631;28;20199;-67
2024/01/02 09:27:44;;;;;;;1.20;0.90;;;6.40;99.90;;;;;;4979778;28;20211;-67
2024/01/02 09:30:14;;;;;;;0.93;0.83;;;6.50;99.90;;;;;;4961237;28;20251;-68
2024/01/02 09:32:43;;;;;;;1.53;0.70;;;6.40;99.90;;;;;;4970476;28;20217;-67
2024/01/02 09:35:10;;;;;;;1.77;0.90;;;;;;;;;;4950337;28;20227;-68
2024/01/02 09:37:38;;;;;;;1.17;0.90;;;6.40;99.90;;;;;;4965073;28;20371;-68
2024/01/02 09:40:15;;;;;;;2.83;1.13;;;7.00;99.90;;;;;;4979382;28;20209;-67
2024/01/02 09:42:47;;;;;;;0.73;0.67;;;6.50;99.90;;;;;;4976442;28;20211;-67
2024/01/02 09:45:25;;;;;;;0.70;0.70;;;6.40;99.90;;;;;;4968068;28;20486;-67
2024/01/02 09:48:13;;;;;;;1.13;0.73;;;6.40;99.90;;;;;;4972258;28;20202;-67
2024/01/02 09:50:47;;;;;;;1.10;0.70;;;6.40;99.90;;;;;;4979814;28;20227;-67
2024/01/02 09:53:35;;;;;;;1.13;0.90;;;6.30;99.90;;;;;;4930675;28;20231;-69
2024/01/02 09:56:08;;;;;;;0.70;0.70;;;6.40;99.90;;;;;;4979182;28;20317;-68
2024/01/02 09:58:48;;;;;;;0.30;0.30;;;6.90;99.90;;;;;;4969924;28;22667;-69
2024/01/02 10:01:24;;;;;;;1.00;0.80;;;6.80;99.90;;;;;;4954150;28;20231;-69
2024/01/02 10:04:10;;;;;;;1.03;0.73;;;6.00;99.90;;;;;;4963662;28;20222;-69
2024/01/02 10:06:57;;;;;;;0.40;0.40;;;6.60;99.90;;;;;;4977108;28;20198;-69
2024/01/02 10:09:44;;;;;;;0.60;0.60;;;6.50;99.90;;;;;;4932106;28;20231;-69
2024/01/02 10:12:23;;;;;;;3.00;0.80;;;6.60;99.90;;;;;;4965964;28;20287;-67
2024/01/02 10:15:05;;;;;;;0.50;0.50;;;6.60;99.90;;;;;;4975815;28;20203;-68
2024/01/02 10:17:41;;;;;;;0.97;0.70;;;6.60;99.90;;;;;;4950550;28;20540;-68
2024/01/02 10:20:18;;;;;;;0.50;0.50;;;6.50;99.90;;;;;;4957705;28;21002;-68
2024/01/02 10:22:53;;;;;;;0.80;0.70;;;6.60;99.90;;;;;;4976937;28;20225;-67
2024/01/02 10:25:22;;;;;;;4.40;1.90;;;7.00;99.90;;;;;;4941735;28;20221;-68
2024/01/02 10:28:02;;;;;;;2.07;1.63;;;6.60;99.90;;;;;;4976955;28;20200;-68
2024/01/02 10:30:48;;;;;;;1.43;1.20;;;7.80;99.90;;;;;;4974784;28;20771;-68
2024/01/02 10:33:23;;;;;;;1.97;1.37;;;6.60;99.90;;;;;;4960596;28;20203;-68
2024/01/02 10:35:54;;;;;;;2.07;1.53;;;6.50;99.90;;;;;;4970135;28;20574;-68
2024/01/02 10:38:33;;;;;;;4.43;2.50;;;6.50;99.90;;;;;;4979663;28;20261;-68
2024/01/02 10:41:06;;;;;;;2.60;2.10;;;6.60;99.90;;;;;;4927827;28;20327;-68
2024/01/02 10:43:42;;;;;;;2.27;1.70;;;6.60;99.90;;;;;;4959350;28;20233;-68
2024/01/02 10:46:18;;;;;;;1.87;1.50;;;6.10;99.90;;;;;;4972324;28;20215;-67
2024/01/02 10:48:55;;;;;;;2.13;1.83;;;6.60;99.90;;;;;;4963988;28;20326;-68
2024/01/02 10:51:32;;;;;;;3.03;1.50;;;6.60;99.90;;;;;;4972540;28;20230;-68
2024/01/02 10:54:05;;;;;;;1.40;1.30;;;6.60;99.90;;;;;;4946722;28;20210;-68
2024/01/02 10:56:39;;;;;;;2.10;1.17;;;6.70;99.90;;;;;;4987486;28;20211;-68
2024/01/02 10:59:31;;;;;;;0.90;0.90;;;6.70;99.90;;;;;;4972415;28;20737;-68
2024/01/02 11:02:04;;;;;;;0.90;0.90;;;6.70;99.90;;;;;;4979193;28;20210;-68
2024/01/02 11:04:39;;;;;;;1.83;1.17;;;6.70;99.90;;;;;;4978631;28;20207;-68
2024/01/02 11:07:10;;;;;;;1.33;1.23;;;6.70;99.90;;;;;;4967734;28;20217;-68
2024/01/02 11:09:44;;;;;;;1.67;1.13;;;6.70;99.90;;;;;;4979483;28;20207;-68
2024/01/02 11:12:12;;;;;;;1.40;1.30;;;6.80;99.90;;;;;;4957679;28;20553;-68
2024/01/02 11:14:42;;;;;;;1.33;1.20;;;6.80;99.90;;;;;;4957585;28;20207;-68
2024/01/02 11:17:10;;;;;;;2.80;1.50;;;6.80;99.90;;;;;;4981360;28;20207;-68
2024/01/02 11:19:44;;;;;;;1.80;1.53;;;7.00;99.90;;;;;;4960328;28;20209;-68
2024/01/02 11:22:18;;;;;;;3.40;1.30;;;6.90;99.90;;;;;;4970126;28;20202;-68
2024/01/02 11:24:50;;;;;;;1.43;1.17;;;6.90;99.90;;;;;;4976552;28;21406;-68
2024/01/02 11:27:20;;;;;;;1.90;1.30;;;6.90;99.90;;;;;;4948626;28;20795;-68
2024/01/02 11:29:48;;;;;;;1.50;1.40;;;6.90;99.90;;;;;;4975309;28;20322;-68
2024/01/02 11:32:18;;;;;;;1.60;1.40;;;6.60;99.90;;;;;;4962589;28;20715;-68
2024/01/02 11:34:57;;;;;;;1.93;1.60;;;6.90;99.90;;;;;;4978895;28;20235;-68
2024/01/02 11:37:35;;;;;;;1.80;1.37;;;6.90;99.90;;;;;;4968340;28;20211;-68
2024/01/02 11:40:17;;;;;;;2.60;1.93;;;7.00;99.90;;;;;;4979245;28;20952;-69
2024/01/02 11:42:58;;;;;;;3.70;1.60;;;6.90;99.90;;;;;;4942315;28;20206;-68
2024/01/02 11:45:30;;;;;;;4.03;2.40;;;7.00;99.90;;;;;;4979922;28;21119;-68
2024/01/02 11:48:07;;;;;;;4.83;3.40;;;7.00;99.90;;;;;;4963184;28;20203;-68
2024/01/02 11:50:51;;;;;;;4.70;3.10;;;7.00;99.90;;;;;;4977100;28;20824;-68
2024/01/02 11:53:31;;;;;;;4.27;2.17;;;7.00;99.90;;;;;;4960105;28;20752;-69
2024/01/02 11:56:05;;;;;;;2.33;1.83;;;7.00;99.90;;;;;;4969895;28;20379;-68
2024/01/02 11:58:39;;;;;;;1.83;1.70;;;7.20;99.90;;;;;;4929417;28;20204;-68
2024/01/02 12:01:17;;;;;;;3.47;1.87;;;7.00;99.90;;;;;;4975354;28;20201;-68
2024/01/02 12:03:55;;;;;;;3.27;1.80;;;7.10;99.90;;;;;;4958022;28;20210;-68
2024/01/02 12:06:29;;;;;;;2.57;1.83;;;7.20;99.90;;;;;;4964152;28;20379;-68
2024/01/02 12:09:05;;;;;;;1.90;1.60;;;7.20;99.90;;;;;;4967822;28;20238;-68
2024/01/02 12:11:38;;;;;;;2.97;1.87;;;7.10;99.90;;;;;;4977754;28;20230;-68
2024/01/02 12:14:18;;;;;;;3.03;2.13;;;7.20;99.90;;;;;;4938462;28;20545;-68
2024/01/02 12:16:48;;;;;;;1.90;1.80;;;7.20;99.90;;;;;;4978905;28;20228;-68
2024/01/02 12:19:23;;;;;;;3.00;1.90;;;7.20;99.90;;;;;;4975950;28;20202;-68
2024/01/02 12:21:51;;;;;;;2.90;2.20;;;7.20;99.90;;;;;;4978934;28;20454;-69
2024/01/02 12:24:20;;;;;;;2.63;2.00;;;7.20;99.90;;;;;;4965651;28;20209;-68
2024/01/02 12:26:49;;;;;;;3.17;2.13;;;7.20;99.90;;;;;;4960768;28;20894;-68
2024/01/02 12:29:28;;;;;;;2.50;1.97;;;7.30;99.90;;;;;;4936057;28;20203;-68
2024/01/02 12:32:01;;;;;;;5.80;2.03;;;7.30;99.90;;;;;;4977779;28;20268;-68
2024/01/02 12:34:38;;;;;;;2.20;1.87;;;7.40;99.90;;;;;;4955178;28;20699;-69
2024/01/02 12:37:14;;;;;;;3.57;1.97;;;7.40;99.90;;;;;;4977794;28;20195;-68
2024/01/02 12:39:44;;;;;;;2.10;1.70;;;8.60;99.90;;;;;;4956992;28;20313;-68
2024/01/02 12:42:16;;;;;;;2.93;2.23;;;7.50;99.90;;;;;;4969760;28;20340;-68
2024/01/02 12:44:46;;;;;;;2.83;2.50;;;7.50;99.90;;;;;;4939272;28;20558;-69
2024/01/02 12:47:19;;;;;;;2.27;2.07;;;7.50;99.90;;;;;;4971045;28;20996;-68
2024/01/02 12:49:53;;;;;;;3.08;2.17;;;7.60;99.90;;;;;;4958703;28;20210;-68
2024/01/02 12:52:27;;;;;;;4.05;2.85;;;7.60;99.90;;;;;;4953815;28;20518;-69
2024/01/02 12:54:58;;;;;;;8.32;4.18;;;7.60;99.90;;;;;;4962393;28;20261;-68
2024/01/02 12:57:25;;;;;;;21.20;8.57;;;7.60;99.90;;;;;;4957791;28;20671;-69
2024/01/02 12:59:53;;;;;;;35.67;15.50;;;7.60;99.90;;;;;;4928510;28;20707;-68
2024/01/02 13:02:21;;;;;;;38.93;14.57;;;7.60;99.90;;;;;;4975308;28;20945;-68
2024/01/02 13:04:48;;;;;;;39.23;14.53;;;7.70;99.90;;;;;;4952454;28;20483;-69
2024/01/02 13:07:15;;;;;;;40.83;15.48;;;7.70;99.90;;;;;;4980903;28;20223;-69
2024/01/02 13:09:43;;;;;;;31.33;14.27;;;7.70;99.90;;;;;;4956359;28;20232;-68